createdAt,value
2024-02-10T00:00:22.169Z,78.91
2024-02-10T00:01:48.024Z,79.38
2024-02-10T00:03:09.013Z,80.00
2024-02-10T00:04:29.668Z,79.74
2024-02-10T00:05:50.487Z,80.21
2024-02-10T00:07:13.814Z,79.94
2024-02-10T00:08:34.674Z,80.95
2024-02-10T00:09:56.810Z,80.06
2024-02-10T00:11:18.094Z,80.25
2024-02-10T00:12:41.277Z,80.82
2024-02-10T00:14:02.278Z,81.10
2024-02-10T00:15:24.736Z,80.72
2024-02-10T00:16:46.166Z,81.06
2024-02-10T00:18:06.969Z,81.29
2024-02-10T00:19:28.333Z,81.26
2024-02-10T00:20:53.981Z,81.14
2024-02-10T00:22:14.964Z,81.76
2024-02-10T00:23:36.254Z,81.41
2024-02-10T00:25:33.136Z,81.65
2024-02-10T00:27:06.029Z,81.96
2024-02-10T00:28:37.466Z,82.57
2024-02-10T00:29:59.645Z,82.26
2024-02-10T00:31:26.184Z,82.79
2024-02-10T00:33:27.978Z,83.02
2024-02-10T00:34:50.470Z,82.77
2024-02-10T00:36:19.284Z,83.52
2024-02-10T00:37:43.026Z,83.59
2024-02-10T00:39:58.296Z,84.17
2024-02-10T00:41:20.728Z,84.52
2024-02-10T00:42:56.531Z,84.55
2024-02-10T00:44:18.421Z,84.92
2024-02-10T00:49:25.303Z,85.41
2024-02-10T00:51:08.285Z,85.78
2024-02-10T00:52:29.276Z,85.14
2024-02-10T00:54:34.407Z,85.83
2024-02-10T00:55:58.765Z,85.66
2024-02-10T00:57:45.604Z,85.53
2024-02-10T00:59:28.086Z,85.19
2024-02-10T01:00:50.237Z,86.07
2024-02-10T01:04:17.768Z,86.33
2024-02-10T01:06:25.039Z,85.42
2024-02-10T01:08:01.319Z,85.71
2024-02-10T01:11:19.566Z,85.80
2024-02-10T01:12:43.622Z,86.13
2024-02-10T01:14:43.585Z,86.18
2024-02-10T01:16:10.186Z,86.55
2024-02-10T01:17:37.243Z,86.28
2024-02-10T01:19:03.070Z,85.85
2024-02-10T01:23:18.064Z,86.55
2024-02-10T01:25:32.353Z,86.31
2024-02-10T01:27:13.991Z,87.07
2024-02-10T01:28:35.829Z,86.24
2024-02-10T01:30:56.406Z,86.79
2024-02-10T01:32:36.848Z,87.54
2024-02-10T01:33:57.602Z,87.62
2024-02-10T01:35:19.481Z,87.16
2024-02-10T01:36:39.855Z,87.67
2024-02-10T01:38:00.929Z,87.32
2024-02-10T01:39:22.126Z,86.94
2024-02-10T01:40:44.004Z,86.81
2024-02-10T01:42:05.111Z,87.54
2024-02-10T01:43:26.223Z,87.31
2024-02-10T01:44:47.071Z,87.13
2024-02-10T01:46:08.937Z,88.02
2024-02-10T01:47:31.136Z,87.70
2024-02-10T01:48:52.257Z,88.36
2024-02-10T01:50:14.655Z,88.52
2024-02-10T01:51:35.931Z,88.23
2024-02-10T01:52:56.642Z,88.11
2024-02-10T01:54:17.725Z,88.42
2024-02-10T01:55:38.196Z,88.07
2024-02-10T01:56:58.808Z,88.27
2024-02-10T01:58:23.411Z,88.18
2024-02-10T01:59:45.681Z,88.56
2024-02-10T02:01:06.496Z,87.98
2024-02-10T02:02:32.443Z,88.61
2024-02-10T02:03:54.733Z,88.44
2024-02-10T02:05:15.437Z,87.90
2024-02-10T02:06:36.111Z,87.74
2024-02-10T02:07:57.841Z,88.15
2024-02-10T02:09:18.863Z,88.08
2024-02-10T02:10:39.443Z,88.08
2024-02-10T02:12:00.127Z,88.12
2024-02-10T02:13:24.460Z,88.60
2024-02-10T02:14:48.486Z,87.66
2024-02-10T02:16:13.548Z,88.51
2024-02-10T02:17:38.931Z,88.77
2024-02-10T02:18:59.955Z,87.87
2024-02-10T02:20:22.168Z,88.63
2024-02-10T02:21:44.091Z,88.79
2024-02-10T02:23:05.228Z,88.89
2024-02-10T02:24:27.343Z,88.13
2024-02-10T02:25:51.650Z,88.20
2024-02-10T02:27:12.517Z,88.38
2024-02-10T02:28:33.006Z,88.42
2024-02-10T02:29:53.388Z,88.37
2024-02-10T02:31:15.031Z,88.33
2024-02-10T02:32:36.028Z,88.11
2024-02-10T02:33:58.126Z,88.69
2024-02-10T02:35:18.963Z,88.41
2024-02-10T02:36:40.940Z,88.89
2024-02-10T02:38:04.500Z,88.49
2024-02-10T02:39:25.084Z,88.38
2024-02-10T02:40:45.799Z,87.68
2024-02-10T02:42:07.310Z,88.47
2024-02-10T02:43:28.069Z,88.48
2024-02-10T02:44:48.618Z,87.97
2024-02-10T02:46:11.519Z,88.70
2024-02-10T02:47:34.128Z,88.37
2024-02-10T02:48:54.791Z,88.03
2024-02-10T02:50:16.163Z,88.39
2024-02-10T02:51:37.036Z,88.86
2024-02-10T02:53:02.090Z,87.69
2024-02-10T02:54:36.997Z,88.68
2024-02-10T02:56:20.395Z,88.18
2024-02-10T02:57:41.244Z,88.11
2024-02-10T03:00:00.010Z,88.32
2024-02-10T03:03:42.298Z,88.14
2024-02-10T03:05:51.048Z,87.78
2024-02-10T03:07:45.223Z,87.09
2024-02-10T03:09:17.867Z,87.67
2024-02-10T03:13:59.618Z,87.94
2024-02-10T03:15:39.964Z,87.84
2024-02-10T03:17:25.364Z,88.32
2024-02-10T03:19:13.061Z,89.04
2024-02-10T03:21:42.843Z,88.93
2024-02-10T03:23:04.534Z,88.01
2024-02-10T03:24:35.914Z,88.47
2024-02-10T03:26:18.774Z,88.34
2024-02-10T03:27:49.372Z,88.57
2024-02-10T03:33:03.326Z,87.09
2024-02-10T03:37:32.026Z,86.66
2024-02-10T03:39:27.643Z,86.81
2024-02-10T03:41:32.053Z,86.92
2024-02-10T03:43:08.112Z,86.79
2024-02-10T03:44:29.580Z,86.80
2024-02-10T03:46:04.603Z,86.92
2024-02-10T03:47:41.192Z,87.11
2024-02-10T03:49:02.206Z,86.86
2024-02-10T03:50:27.353Z,86.61
2024-02-10T03:52:16.164Z,86.88
2024-02-10T03:53:37.244Z,86.29
2024-02-10T03:57:21.031Z,86.64
2024-02-10T03:58:53.186Z,86.20
2024-02-10T04:00:25.741Z,86.37
2024-02-10T04:01:57.221Z,86.70
2024-02-10T04:03:18.762Z,86.14
2024-02-10T04:04:39.436Z,86.88
2024-02-10T04:06:00.416Z,86.63
2024-02-10T04:07:22.063Z,85.81
2024-02-10T04:08:46.875Z,85.50
2024-02-10T04:10:10.548Z,85.82
2024-02-10T04:11:31.325Z,85.54
2024-02-10T04:12:52.011Z,86.02
2024-02-10T04:14:17.477Z,86.30
2024-02-10T04:15:38.050Z,85.68
2024-02-10T04:16:58.641Z,86.35
2024-02-10T04:18:20.154Z,86.21
2024-02-10T04:19:41.074Z,86.81
2024-02-10T04:21:02.759Z,86.10
2024-02-10T04:22:24.607Z,86.84
2024-02-10T04:23:45.190Z,86.53
2024-02-10T04:25:13.531Z,86.30
2024-02-10T04:26:34.136Z,85.97
2024-02-10T04:27:54.866Z,86.53
2024-02-10T04:29:15.640Z,86.49
2024-02-10T04:30:36.518Z,86.12
2024-02-10T04:32:00.375Z,86.72
2024-02-10T04:33:21.401Z,86.46
2024-02-10T04:34:44.722Z,86.37
2024-02-10T04:36:05.165Z,86.57
2024-02-10T04:37:25.767Z,86.19
2024-02-10T04:38:48.791Z,86.29
2024-02-10T04:40:10.917Z,86.10
2024-02-10T04:41:32.305Z,85.94
2024-02-10T04:42:54.320Z,85.33
2024-02-10T04:44:14.916Z,85.41
2024-02-10T04:45:36.744Z,85.34
2024-02-10T04:46:57.288Z,85.05
2024-02-10T04:48:21.665Z,83.95
2024-02-10T04:49:42.844Z,83.92
2024-02-10T04:51:03.588Z,83.71
2024-02-10T04:52:24.602Z,83.77
2024-02-10T04:53:45.999Z,83.91
2024-02-10T04:55:07.059Z,84.09
2024-02-10T04:56:50.230Z,84.25
2024-02-10T04:58:14.053Z,83.72
2024-02-10T05:01:51.003Z,84.42
2024-02-10T05:03:11.507Z,84.36
2024-02-10T05:04:32.563Z,84.49
2024-02-10T05:05:53.716Z,84.29
2024-02-10T05:07:19.264Z,83.70
2024-02-10T05:08:40.357Z,83.72
2024-02-10T05:10:03.402Z,84.50
2024-02-10T05:11:25.728Z,83.83
2024-02-10T05:12:49.327Z,85.28
2024-02-10T05:14:13.128Z,85.37
2024-02-10T05:15:33.866Z,84.53
2024-02-10T05:16:56.979Z,85.49
2024-02-10T05:18:17.818Z,85.02
2024-02-10T05:19:38.842Z,84.70
2024-02-10T05:20:59.688Z,84.77
2024-02-10T05:22:22.911Z,85.00
2024-02-10T05:23:46.681Z,85.10
2024-02-10T05:25:15.322Z,84.52
2024-02-10T05:26:37.670Z,85.21
2024-02-10T05:28:01.872Z,85.42
2024-02-10T05:29:22.628Z,85.15
2024-02-10T05:30:43.057Z,84.51
2024-02-10T05:32:07.189Z,85.07
2024-02-10T05:33:30.836Z,84.54
2024-02-10T05:34:51.953Z,84.77
2024-02-10T05:38:37.196Z,84.67
2024-02-10T05:40:37.962Z,84.18
2024-02-10T05:44:47.704Z,84.32
2024-02-10T05:46:17.768Z,84.79
2024-02-10T05:47:40.734Z,84.45
2024-02-10T05:49:09.691Z,83.82
2024-02-10T05:50:43.776Z,84.49
2024-02-10T05:52:07.393Z,84.34
2024-02-10T05:53:28.769Z,84.87
2024-02-10T05:54:56.377Z,84.20
2024-02-10T05:56:47.125Z,83.89
2024-02-10T05:58:08.427Z,84.49
2024-02-10T05:59:29.746Z,84.25
2024-02-10T06:01:00.997Z,83.73
2024-02-10T06:02:22.848Z,83.94
2024-02-10T06:03:43.851Z,83.70
2024-02-10T06:05:06.890Z,84.37
2024-02-10T06:06:27.606Z,84.06
2024-02-10T06:08:27.089Z,83.98
2024-02-10T06:10:44.971Z,83.93
2024-02-10T06:14:00.619Z,84.19
2024-02-10T06:15:25.847Z,84.00
2024-02-10T06:16:53.191Z,84.54
2024-02-10T06:18:16.856Z,84.10
2024-02-10T06:19:43.059Z,84.50
2024-02-10T06:21:18.167Z,84.93
2024-02-10T06:22:48.996Z,84.41
2024-02-10T06:24:33.476Z,83.66
2024-02-10T06:26:24.319Z,84.42
2024-02-10T06:28:11.301Z,84.05
2024-02-10T06:29:36.808Z,84.27
2024-02-10T06:31:00.179Z,83.96
2024-02-10T06:32:25.862Z,83.68
2024-02-10T06:34:44.704Z,83.41
2024-02-10T06:36:07.464Z,84.32
2024-02-10T06:38:54.002Z,83.65
2024-02-10T06:39:31.503Z,83.83
2024-02-10T06:41:32.458Z,83.53
2024-02-10T06:43:04.473Z,83.96
2024-02-10T06:44:32.187Z,84.26
2024-02-10T06:49:22.699Z,83.83
2024-02-10T06:50:46.795Z,83.47
2024-02-10T06:52:13.135Z,83.30
2024-02-10T06:53:55.273Z,84.04
2024-02-10T06:58:17.670Z,83.25
2024-02-10T06:59:50.909Z,83.70
2024-02-10T07:01:30.189Z,83.26
2024-02-10T07:03:08.075Z,82.88
2024-02-10T07:09:31.375Z,82.79
2024-02-10T07:10:59.624Z,82.83
2024-02-10T07:12:22.440Z,83.24
2024-02-10T07:16:56.469Z,83.71
2024-02-10T07:18:43.530Z,83.23
2024-02-10T07:20:07.770Z,83.21
2024-02-10T07:21:30.062Z,83.28
2024-02-10T07:25:25.304Z,82.73
2024-02-10T07:28:57.787Z,83.18
2024-02-10T07:33:08.202Z,83.26
2024-02-10T07:35:03.315Z,83.64
2024-02-10T07:36:29.675Z,83.87
2024-02-10T07:38:40.372Z,84.00
2024-02-10T07:40:25.564Z,84.01
2024-02-10T07:42:50.700Z,82.98
2024-02-10T07:49:36.922Z,82.79
2024-02-10T07:51:27.654Z,82.77
2024-02-10T07:53:32.448Z,82.78
2024-02-10T07:55:20.894Z,82.63
2024-02-10T07:57:42.627Z,83.03
2024-02-10T08:01:48.695Z,83.29
2024-02-10T08:03:11.132Z,82.92
2024-02-10T08:04:33.824Z,82.54
2024-02-10T08:07:37.787Z,82.19
2024-02-10T08:09:33.910Z,82.04
2024-02-10T08:11:01.277Z,82.54
2024-02-10T08:12:38.541Z,81.19
2024-02-10T08:14:18.444Z,81.97
2024-02-10T08:18:11.471Z,81.50
2024-02-10T08:19:38.882Z,81.93
2024-02-10T08:21:04.709Z,82.43
2024-02-10T08:22:41.440Z,81.90
2024-02-10T08:24:49.013Z,81.65
2024-02-10T08:26:15.576Z,81.50
2024-02-10T08:27:47.900Z,82.19
2024-02-10T08:29:26.336Z,82.07
2024-02-10T08:31:35.609Z,82.39
2024-02-10T08:33:20.329Z,82.40
2024-02-10T08:36:58.867Z,81.43
2024-02-10T08:38:42.579Z,81.60
2024-02-10T08:42:08.373Z,81.45
2024-02-10T08:43:47.774Z,81.07
2024-02-10T08:45:34.228Z,81.25
2024-02-10T08:47:22.076Z,80.52
2024-02-10T08:49:40.797Z,80.23
2024-02-10T08:51:08.346Z,79.52
2024-02-10T08:52:33.059Z,79.69
2024-02-10T08:53:58.886Z,79.41
2024-02-10T08:55:54.888Z,79.76
2024-02-10T08:59:28.460Z,79.66
2024-02-10T09:01:19.135Z,79.83
2024-02-10T09:02:52.433Z,79.37
2024-02-10T09:04:18.410Z,79.64
2024-02-10T09:06:23.368Z,78.51
2024-02-10T09:08:44.796Z,78.35
2024-02-10T09:10:13.891Z,78.32
2024-02-10T09:12:03.464Z,77.66
2024-02-10T09:13:28.518Z,77.96
2024-02-10T09:14:55.026Z,77.59
2024-02-10T09:16:37.030Z,77.19
2024-02-10T09:18:55.606Z,76.95
2024-02-10T09:20:39.593Z,77.20
2024-02-10T09:22:17.235Z,77.54
2024-02-10T09:24:15.588Z,76.72
2024-02-10T09:25:59.577Z,76.77
2024-02-10T09:27:31.309Z,76.20
2024-02-10T09:29:13.807Z,76.83
2024-02-10T09:32:50.324Z,76.89
2024-02-10T09:34:15.794Z,75.68
2024-02-10T09:35:58.549Z,76.16
2024-02-10T09:37:34.176Z,75.56
2024-02-10T09:39:00.226Z,75.34
2024-02-10T09:40:23.062Z,74.96
2024-02-10T09:41:45.220Z,74.71
2024-02-10T09:43:11.187Z,74.68
2024-02-10T09:44:34.272Z,74.57
2024-02-10T09:46:19.848Z,74.70
2024-02-10T09:47:53.899Z,75.29
2024-02-10T09:49:33.260Z,74.91
2024-02-10T09:53:04.383Z,74.83
2024-02-10T09:54:44.911Z,74.39
2024-02-10T09:56:46.226Z,74.86
2024-02-10T09:58:32.183Z,75.13
2024-02-10T10:00:04.483Z,74.64
2024-02-10T10:02:10.017Z,75.01
2024-02-10T10:06:11.730Z,74.73
2024-02-10T10:07:37.236Z,75.75
2024-02-10T10:11:38.612Z,75.63
2024-02-10T10:13:56.052Z,75.54
2024-02-10T10:16:26.355Z,74.57
2024-02-10T10:17:50.226Z,74.27
2024-02-10T10:19:34.812Z,74.78
2024-02-10T10:21:06.878Z,74.11
2024-02-10T10:23:11.798Z,74.14
2024-02-10T10:24:50.776Z,73.61
2024-02-10T10:26:12.952Z,73.97
2024-02-10T10:33:25.532Z,72.97
2024-02-10T10:34:58.835Z,73.26
2024-02-10T10:38:13.932Z,72.57
2024-02-10T10:39:51.694Z,72.66
2024-02-10T10:41:31.777Z,71.93
2024-02-10T10:43:10.869Z,72.85
2024-02-10T10:44:42.325Z,72.46
2024-02-10T10:46:55.647Z,73.32
2024-02-10T10:50:44.772Z,73.29
2024-02-10T10:53:45.665Z,73.34
2024-02-10T10:56:35.397Z,72.46
2024-02-10T10:58:07.247Z,73.41
2024-02-10T10:59:30.344Z,72.72
2024-02-10T11:01:33.466Z,73.34
2024-02-10T11:04:49.523Z,72.49
2024-02-10T11:06:16.510Z,73.52
2024-02-10T11:07:45.535Z,73.57
2024-02-10T11:09:38.198Z,73.23
2024-02-10T11:11:09.566Z,73.19
2024-02-10T11:12:40.338Z,72.98
2024-02-10T11:14:26.415Z,73.15
2024-02-10T11:16:16.522Z,72.86
2024-02-10T11:17:47.507Z,72.74
2024-02-10T11:20:52.210Z,72.70
2024-02-10T11:22:14.064Z,72.00
2024-02-10T11:23:51.619Z,73.18
2024-02-10T11:25:59.257Z,72.75
2024-02-10T11:28:03.111Z,72.66
2024-02-10T11:29:46.971Z,72.67
2024-02-10T11:33:51.156Z,72.51
2024-02-10T11:35:16.480Z,71.62
2024-02-10T11:36:39.668Z,71.48
2024-02-10T11:39:06.661Z,72.25
2024-02-10T11:41:22.350Z,71.49
2024-02-10T11:43:09.080Z,72.30
2024-02-10T11:44:44.840Z,71.85
2024-02-10T11:46:10.399Z,71.71
2024-02-10T11:47:51.561Z,72.41
2024-02-10T11:49:27.204Z,71.82
2024-02-10T11:51:38.649Z,71.92
2024-02-10T11:55:14.503Z,71.80
2024-02-10T11:56:42.387Z,72.67
2024-02-10T11:58:09.830Z,72.50
2024-02-10T11:59:40.733Z,72.11
2024-02-10T12:01:27.966Z,72.20
2024-02-10T12:03:15.517Z,71.60
2024-02-10T12:04:43.388Z,72.39
2024-02-10T12:06:14.772Z,71.51
2024-02-10T12:07:39.941Z,71.45
2024-02-10T12:09:06.909Z,72.01
2024-02-10T12:10:33.976Z,71.95
2024-02-10T12:12:17.507Z,71.87
2024-02-10T12:14:02.497Z,71.76
2024-02-10T12:16:06.026Z,71.79
2024-02-10T12:17:37.707Z,71.68
2024-02-10T12:19:11.363Z,71.32
2024-02-10T12:20:39.488Z,71.59
2024-02-10T12:22:13.180Z,71.41
2024-02-10T12:23:48.792Z,71.13
2024-02-10T12:25:14.790Z,70.50
2024-02-10T12:27:13.070Z,71.15
2024-02-10T12:28:50.390Z,70.92
2024-02-10T12:30:41.320Z,70.10
2024-02-10T12:32:06.476Z,70.57
2024-02-10T12:34:19.137Z,69.90
2024-02-10T12:35:41.938Z,69.83
2024-02-10T12:40:06.756Z,70.36
2024-02-10T12:41:31.237Z,69.08
2024-02-10T12:43:15.867Z,69.30
2024-02-10T12:45:00.492Z,70.18
2024-02-10T12:46:24.943Z,70.25
2024-02-10T12:47:54.506Z,69.68
2024-02-10T12:50:00.432Z,70.33
2024-02-10T12:51:29.859Z,70.28
2024-02-10T12:52:52.355Z,70.46
2024-02-10T12:54:23.880Z,71.24
2024-02-10T12:56:19.144Z,71.39
2024-02-10T12:57:47.090Z,71.25
2024-02-10T12:59:12.465Z,71.32
2024-02-10T13:00:34.881Z,71.54
2024-02-10T13:02:04.096Z,71.18
2024-02-10T13:03:40.272Z,72.05
2024-02-10T13:05:05.685Z,70.21
2024-02-10T13:06:34.307Z,71.13
2024-02-10T13:08:10.140Z,70.46
2024-02-10T13:09:36.326Z,71.18
2024-02-10T13:11:28.771Z,70.48
2024-02-10T13:13:00.830Z,70.11
2024-02-10T13:14:42.191Z,71.15
2024-02-10T13:16:34.938Z,70.23
2024-02-10T13:18:00.391Z,71.39
2024-02-10T13:21:48.030Z,70.88
2024-02-10T13:23:22.253Z,71.92
2024-02-10T13:25:22.444Z,71.11
2024-02-10T13:27:00.054Z,70.66
2024-02-10T13:29:09.857Z,70.90
2024-02-10T13:36:02.038Z,71.83
2024-02-10T13:37:47.762Z,70.39
2024-02-10T13:39:43.290Z,70.05
2024-02-10T13:42:02.476Z,70.29
2024-02-10T13:46:29.760Z,70.36
2024-02-10T13:48:17.932Z,71.44
2024-02-10T13:52:20.571Z,71.15
2024-02-10T13:54:00.766Z,70.40
2024-02-10T13:56:02.645Z,70.43
2024-02-10T13:58:43.383Z,70.14
2024-02-10T14:00:36.342Z,70.55
2024-02-10T14:02:17.504Z,70.60
2024-02-10T14:04:22.765Z,69.83
2024-02-10T14:06:22.154Z,69.41
2024-02-10T14:08:21.687Z,69.44
2024-02-10T14:10:43.267Z,69.84
2024-02-10T14:12:13.272Z,70.36
2024-02-10T14:14:01.985Z,70.77
2024-02-10T14:15:31.961Z,70.12
2024-02-10T14:21:10.628Z,70.90
2024-02-10T14:23:55.096Z,70.20
2024-02-10T14:25:38.426Z,70.56
2024-02-10T14:27:44.620Z,69.76
2024-02-10T14:29:34.102Z,69.53
2024-02-10T14:31:25.423Z,70.35
2024-02-10T14:33:00.676Z,69.90
2024-02-10T14:34:39.314Z,69.64
2024-02-10T14:36:19.393Z,70.10
2024-02-10T14:37:52.817Z,69.75
2024-02-10T14:39:43.087Z,69.58
2024-02-10T14:41:29.250Z,70.43
2024-02-10T14:43:31.671Z,69.45
2024-02-10T14:46:08.484Z,69.46
2024-02-10T14:47:31.293Z,70.35
2024-02-10T14:51:32.300Z,70.64
2024-02-10T14:53:14.750Z,69.60
2024-02-10T14:54:57.934Z,69.53
2024-02-10T14:56:41.036Z,70.46
2024-02-10T14:58:10.738Z,69.55
2024-02-10T14:59:33.834Z,70.79
2024-02-10T15:03:47.921Z,69.95
2024-02-10T15:05:23.984Z,70.29
2024-02-10T15:06:46.922Z,69.88
2024-02-10T15:08:13.043Z,71.02
2024-02-10T15:09:40.911Z,70.71
2024-02-10T15:11:44.020Z,70.09
2024-02-10T15:14:24.174Z,70.74
2024-02-10T15:15:53.701Z,70.97
2024-02-10T15:17:43.280Z,70.27
2024-02-10T15:19:04.546Z,70.72
2024-02-10T15:20:36.314Z,71.51
2024-02-10T15:22:23.200Z,70.63
2024-02-10T15:23:48.589Z,70.96
2024-02-10T15:25:18.361Z,71.53
2024-02-10T15:27:15.872Z,71.64
2024-02-10T15:28:47.859Z,70.99
2024-02-10T15:30:18.105Z,72.13
2024-02-10T15:31:41.667Z,71.25
2024-02-10T15:33:48.593Z,71.73
2024-02-10T15:35:38.549Z,71.00
2024-02-10T15:37:05.092Z,70.57
2024-02-10T15:39:19.997Z,71.86
2024-02-10T15:40:59.742Z,70.85
2024-02-10T15:42:29.406Z,71.85
2024-02-10T15:44:09.630Z,71.37
2024-02-10T15:45:49.920Z,71.02
2024-02-10T15:48:04.259Z,70.89
2024-02-10T15:49:32.374Z,70.22
2024-02-10T15:50:58.078Z,70.39
2024-02-10T15:52:21.200Z,71.22
2024-02-10T15:53:43.437Z,71.06
2024-02-10T15:55:15.724Z,71.94
2024-02-10T15:56:56.701Z,72.00
2024-02-10T15:58:24.251Z,71.99
2024-02-10T15:59:53.409Z,71.84
2024-02-10T16:01:42.021Z,72.04
2024-02-10T16:03:04.911Z,71.30
2024-02-10T16:04:52.383Z,71.68
2024-02-10T16:06:19.911Z,72.46
2024-02-10T16:07:45.612Z,72.30
2024-02-10T16:09:12.000Z,72.52
2024-02-10T16:10:56.543Z,72.63
2024-02-10T16:12:49.537Z,72.17
2024-02-10T16:14:29.349Z,71.72
2024-02-10T16:15:51.506Z,72.33
2024-02-10T16:17:16.836Z,72.35
2024-02-10T16:18:39.791Z,71.84
2024-02-10T16:20:02.025Z,71.88
2024-02-10T16:21:29.109Z,71.89
2024-02-10T16:22:55.963Z,71.82
2024-02-10T16:24:18.135Z,70.81
2024-02-10T16:25:42.267Z,70.93
2024-02-10T16:27:04.183Z,70.64
2024-02-10T16:28:26.589Z,71.27
2024-02-10T16:29:49.311Z,70.96
2024-02-10T16:31:12.756Z,70.50
2024-02-10T16:32:36.602Z,70.37
2024-02-10T16:34:00.151Z,70.81
2024-02-10T16:35:28.235Z,71.37
2024-02-10T16:36:50.681Z,70.48
2024-02-10T16:38:14.464Z,71.45
2024-02-10T16:39:36.294Z,71.97
2024-02-10T16:40:58.360Z,71.87
2024-02-10T16:42:20.404Z,70.76
2024-02-10T16:43:45.725Z,71.67
2024-02-10T16:45:08.085Z,71.07
2024-02-10T16:46:34.432Z,71.13
2024-02-10T16:47:58.134Z,71.05
2024-02-10T16:49:24.606Z,70.84
2024-02-10T16:50:46.923Z,71.05
2024-02-10T16:52:09.201Z,71.56
2024-02-10T16:53:30.386Z,71.55
2024-02-10T16:54:54.934Z,71.93
2024-02-10T16:56:17.715Z,72.21
2024-02-10T16:57:39.993Z,71.77
2024-02-10T16:59:01.297Z,72.40
2024-02-10T17:00:26.441Z,72.34
2024-02-10T17:01:48.387Z,72.08
2024-02-10T17:03:11.858Z,71.28
2024-02-10T17:04:34.886Z,71.73
2024-02-10T17:06:00.597Z,71.75
2024-02-10T17:07:31.613Z,71.12
2024-02-10T17:08:52.871Z,71.52
2024-02-10T17:10:16.357Z,70.43
2024-02-10T17:11:39.215Z,71.08
2024-02-10T17:13:01.412Z,70.98
2024-02-10T17:14:23.583Z,70.62
2024-02-10T17:15:46.256Z,70.47
2024-02-10T17:17:09.566Z,69.17
2024-02-10T17:18:32.920Z,69.14
2024-02-10T17:19:55.345Z,70.21
2024-02-10T17:21:17.685Z,69.40
2024-02-10T17:22:40.887Z,69.10
2024-02-10T17:24:02.633Z,68.90
2024-02-10T17:25:30.022Z,68.35
2024-02-10T17:26:54.612Z,68.99
2024-02-10T17:28:17.167Z,69.22
2024-02-10T17:29:39.329Z,69.49
2024-02-10T17:31:02.173Z,69.63
2024-02-10T17:32:23.526Z,68.87
2024-02-10T17:33:46.053Z,69.38
2024-02-10T17:35:09.579Z,68.48
2024-02-10T17:36:33.227Z,68.36
2024-02-10T17:38:03.598Z,68.52
2024-02-10T17:39:25.590Z,69.01
2024-02-10T17:40:47.990Z,69.04
2024-02-10T17:42:10.455Z,68.48
2024-02-10T17:43:33.081Z,68.96
2024-02-10T17:44:58.731Z,68.69
2024-02-10T17:46:21.298Z,69.33
2024-02-10T17:47:47.782Z,69.64
2024-02-10T17:49:12.236Z,69.52
2024-02-10T17:50:35.019Z,68.89
2024-02-10T17:51:58.954Z,70.03
2024-02-10T17:53:25.599Z,69.12
2024-02-10T17:54:50.382Z,68.97
2024-02-10T17:56:13.738Z,69.16
2024-02-10T17:57:36.587Z,69.78
2024-02-10T17:58:58.664Z,69.03
2024-02-10T18:00:22.592Z,69.71
2024-02-10T18:01:45.646Z,69.21
2024-02-10T18:03:08.111Z,69.48
2024-02-10T18:04:29.823Z,69.25
2024-02-10T18:05:54.873Z,69.27
2024-02-10T18:07:19.342Z,69.01
2024-02-10T18:08:42.727Z,68.75
2024-02-10T18:10:06.880Z,68.92
2024-02-10T18:11:29.534Z,68.78
2024-02-10T18:12:52.658Z,68.13
2024-02-10T18:14:15.317Z,68.24
2024-02-10T18:15:38.340Z,67.57
2024-02-10T18:17:01.797Z,68.14
2024-02-10T18:18:26.747Z,66.95
2024-02-10T18:19:49.136Z,66.82
2024-02-10T18:21:11.435Z,67.56
2024-02-10T18:22:34.076Z,68.13
2024-02-10T18:23:57.231Z,67.38
2024-02-10T18:25:19.846Z,67.46
2024-02-10T18:26:42.485Z,67.41
2024-02-10T18:28:12.037Z,66.88
2024-02-10T18:29:36.789Z,67.57
2024-02-10T18:31:03.522Z,66.96
2024-02-10T18:32:25.854Z,66.48
2024-02-10T18:33:47.670Z,66.62
2024-02-10T18:35:10.189Z,67.53
2024-02-10T18:36:33.282Z,67.12
2024-02-10T18:37:59.168Z,67.58
2024-02-10T18:39:23.743Z,66.79
2024-02-10T18:40:45.733Z,67.12
2024-02-10T18:42:07.888Z,67.32
2024-02-10T18:43:32.122Z,66.38
2024-02-10T18:44:54.788Z,66.71
2024-02-10T18:46:19.146Z,66.41
2024-02-10T18:47:42.206Z,66.03
2024-02-10T18:49:04.850Z,66.69
2024-02-10T18:50:27.061Z,66.15
2024-02-10T18:51:50.080Z,66.14
2024-02-10T18:53:14.864Z,65.93
2024-02-10T18:54:36.526Z,66.46
2024-02-10T18:56:09.038Z,66.73
2024-02-10T18:57:32.766Z,67.58
2024-02-10T18:58:58.302Z,67.02
2024-02-10T19:00:27.153Z,67.58
2024-02-10T19:01:55.987Z,66.81
2024-02-10T19:03:18.521Z,66.11
2024-02-10T19:04:41.424Z,65.99
2024-02-10T19:06:05.103Z,65.51
2024-02-10T19:07:28.810Z,65.53
2024-02-10T19:08:55.292Z,65.04
2024-02-10T19:10:20.230Z,64.30
2024-02-10T19:11:42.164Z,63.61
2024-02-10T19:13:06.048Z,63.28
2024-02-10T19:14:29.927Z,62.96
2024-02-10T19:15:53.998Z,63.23
2024-02-10T19:17:21.763Z,63.50
2024-02-10T19:18:45.667Z,63.70
2024-02-10T19:20:10.049Z,63.58
2024-02-10T19:21:37.293Z,63.67
2024-02-10T19:23:00.544Z,63.85
2024-02-10T19:24:25.418Z,64.01
2024-02-10T19:25:52.233Z,64.55
2024-02-10T19:27:15.269Z,64.62
2024-02-10T19:28:40.438Z,64.90
2024-02-10T19:30:11.378Z,63.95
2024-02-10T19:31:41.811Z,64.20
2024-02-10T19:33:04.311Z,64.23
2024-02-10T19:34:26.172Z,63.98
2024-02-10T19:35:52.681Z,64.17
2024-02-10T19:37:15.077Z,64.71
2024-02-10T19:38:38.566Z,64.60
2024-02-10T19:40:00.455Z,65.02
2024-02-10T19:41:25.052Z,64.48
2024-02-10T19:42:49.303Z,64.71
2024-02-10T19:44:15.222Z,65.36
2024-02-10T19:45:39.635Z,65.21
2024-02-10T19:47:02.434Z,65.78
2024-02-10T19:48:30.129Z,65.51
2024-02-10T19:49:57.209Z,65.97
2024-02-10T19:51:21.139Z,66.06
2024-02-10T19:52:48.184Z,66.92
2024-02-10T19:54:13.635Z,66.12
2024-02-10T19:55:36.052Z,66.93
2024-02-10T19:56:59.423Z,67.21
2024-02-10T19:58:25.126Z,67.40
2024-02-10T19:59:47.933Z,67.35
2024-02-10T20:01:11.197Z,67.61
2024-02-10T20:02:32.881Z,67.72
2024-02-10T20:03:55.885Z,66.59
2024-02-10T20:05:19.311Z,66.61
2024-02-10T20:06:43.265Z,67.63
2024-02-10T20:08:09.605Z,66.36
2024-02-10T20:09:32.362Z,66.60
2024-02-10T20:10:56.030Z,67.37
2024-02-10T20:12:33.941Z,66.59
2024-02-10T20:14:19.472Z,66.60
2024-02-10T20:15:51.188Z,66.44
2024-02-10T20:17:22.952Z,66.49
2024-02-10T20:18:54.062Z,65.36
2024-02-10T20:20:22.586Z,65.52
2024-02-10T20:21:46.356Z,65.80
2024-02-10T20:23:09.635Z,65.51
2024-02-10T20:24:40.916Z,65.95
2024-02-10T20:26:02.113Z,65.89
2024-02-10T20:27:57.821Z,65.81
2024-02-10T20:29:23.223Z,64.96
2024-02-10T20:30:45.446Z,65.18
2024-02-10T20:33:11.266Z,65.05
2024-02-10T20:38:02.075Z,65.43
2024-02-10T20:44:51.168Z,66.50
2024-02-10T20:46:44.662Z,66.56
2024-02-10T20:48:39.872Z,67.34
2024-02-10T20:50:05.310Z,67.26
2024-02-10T20:54:15.930Z,67.03
2024-02-10T20:56:12.821Z,67.88
2024-02-10T20:57:34.457Z,67.12
2024-02-10T20:59:33.213Z,66.80
2024-02-10T21:01:39.440Z,67.49
2024-02-10T21:03:12.928Z,67.81
2024-02-10T21:04:53.609Z,67.25
2024-02-10T21:06:39.485Z,68.00
2024-02-10T21:08:24.171Z,66.88
2024-02-10T21:13:00.396Z,67.26
2024-02-10T21:15:36.914Z,67.20
2024-02-10T21:20:10.477Z,68.92
2024-02-10T21:22:22.999Z,69.12
2024-02-10T21:24:25.097Z,69.84
2024-02-10T21:27:00.849Z,70.43
2024-02-10T21:29:39.223Z,69.98
2024-02-10T21:31:08.932Z,69.57
2024-02-10T21:33:34.880Z,69.43
2024-02-10T21:35:03.268Z,70.52
2024-02-10T21:36:27.011Z,69.40
2024-02-10T21:40:24.304Z,69.73
2024-02-10T21:42:30.724Z,69.37
2024-02-10T21:44:42.720Z,69.03
2024-02-10T21:46:04.344Z,69.75
2024-02-10T21:47:39.565Z,69.55
2024-02-10T21:49:27.784Z,70.13
2024-02-10T21:51:08.395Z,69.13
2024-02-10T21:52:32.323Z,68.82
2024-02-10T21:55:06.914Z,68.74
2024-02-10T21:56:05.154Z,69.85
2024-02-10T21:57:40.771Z,68.55
2024-02-10T21:59:08.107Z,69.08
2024-02-10T22:00:54.329Z,70.26
2024-02-10T22:02:19.310Z,68.65
2024-02-10T22:04:18.578Z,69.85
2024-02-10T22:05:39.735Z,69.64
2024-02-10T22:07:26.335Z,70.60
2024-02-10T22:09:10.623Z,70.60
2024-02-10T22:11:13.533Z,70.81
2024-02-10T22:13:14.479Z,70.21
2024-02-10T22:14:44.073Z,70.88
2024-02-10T22:16:14.379Z,70.52
2024-02-10T22:18:58.746Z,71.02
2024-02-10T22:19:46.903Z,71.38
2024-02-10T22:21:24.184Z,71.08
2024-02-10T22:25:23.796Z,72.17
2024-02-10T22:26:54.481Z,72.12
2024-02-10T22:28:53.551Z,71.86
2024-02-10T22:30:20.559Z,71.72